sensor_id;sensor_type;location;lat;lon;timestamp;P1;durP1;ratioP1;P2;durP2;ratioP2
9108;SDS011;4590;51.462;6.692;2023-02-22T00:00:39;41.58;;;20.30;;
9108;SDS011;4590;51.462;6.692;2023-02-22T00:03:15;39.00;;;19.52;;
9108;SDS011;4590;51.462;6.692;2023-02-22T00:06:14;42.58;;;19.65;;
9108;SDS011;4590;51.462;6.692;2023-02-22T00:08:39;40.78;;;19.88;;
9108;SDS011;4590;51.462;6.692;2023-02-22T00:11:05;38.23;;;19.90;;
9108;SDS011;4590;51.462;6.692;2023-02-22T00:13:32;42.50;;;19.52;;
9108;SDS011;4590;51.462;6.692;2023-02-22T00:15:58;47.80;;;21.77;;
9108;SDS011;4590;51.462;6.692;2023-02-22T00:18:24;37.35;;;19.30;;
9108;SDS011;4590;51.462;6.692;2023-02-22T00:20:52;41.13;;;21.50;;
9108;SDS011;4590;51.462;6.692;2023-02-22T00:23:25;45.72;;;21.77;;
9108;SDS011;4590;51.462;6.692;2023-02-22T00:25:52;45.63;;;22.02;;
9108;SDS011;4590;51.462;6.692;2023-02-22T00:28:19;42.50;;;21.48;;
9108;SDS011;4590;51.462;6.692;2023-02-22T00:30:45;44.80;;;21.48;;
9108;SDS011;4590;51.462;6.692;2023-02-22T00:33:12;46.60;;;21.55;;
9108;SDS011;4590;51.462;6.692;2023-02-22T00:35:38;44.00;;;20.65;;
9108;SDS011;4590;51.462;6.692;2023-02-22T00:38:04;39.57;;;20.03;;
9108;SDS011;4590;51.462;6.692;2023-02-22T00:40:31;42.80;;;19.85;;
9108;SDS011;4590;51.462;6.692;2023-02-22T00:42:57;44.75;;;20.20;;
9108;SDS011;4590;51.462;6.692;2023-02-22T00:45:25;43.60;;;21.42;;
9108;SDS011;4590;51.462;6.692;2023-02-22T00:47:52;44.25;;;20.98;;
9108;SDS011;4590;51.462;6.692;2023-02-22T00:50:21;40.90;;;18.83;;
9108;SDS011;4590;51.462;6.692;2023-02-22T00:52:47;38.95;;;19.25;;
9108;SDS011;4590;51.462;6.692;2023-02-22T00:55:17;39.03;;;19.03;;
9108;SDS011;4590;51.462;6.692;2023-02-22T00:57:45;39.83;;;18.60;;
9108;SDS011;4590;51.462;6.692;2023-02-22T01:00:14;41.70;;;19.63;;
9108;SDS011;4590;51.462;6.692;2023-02-22T01:02:42;40.47;;;19.83;;
9108;SDS011;4590;51.462;6.692;2023-02-22T01:05:08;42.43;;;19.60;;
9108;SDS011;4590;51.462;6.692;2023-02-22T01:07:36;36.28;;;19.13;;
9108;SDS011;4590;51.462;6.692;2023-02-22T01:10:02;33.17;;;17.95;;
9108;SDS011;4590;51.462;6.692;2023-02-22T01:12:28;37.13;;;18.23;;
9108;SDS011;4590;51.462;6.692;2023-02-22T01:14:54;36.97;;;17.92;;
9108;SDS011;4590;51.462;6.692;2023-02-22T01:17:21;36.63;;;17.23;;
9108;SDS011;4590;51.462;6.692;2023-02-22T01:19:47;35.17;;;18.13;;
9108;SDS011;4590;51.462;6.692;2023-02-22T01:22:12;40.67;;;19.57;;
9108;SDS011;4590;51.462;6.692;2023-02-22T01:24:37;36.87;;;17.83;;
9108;SDS011;4590;51.462;6.692;2023-02-22T01:27:03;35.43;;;18.13;;
9108;SDS011;4590;51.462;6.692;2023-02-22T01:29:28;38.57;;;19.80;;
9108;SDS011;4590;51.462;6.692;2023-02-22T01:31:54;35.17;;;18.43;;
9108;SDS011;4590;51.462;6.692;2023-02-22T01:34:21;40.03;;;19.63;;
9108;SDS011;4590;51.462;6.692;2023-02-22T01:36:47;40.28;;;19.80;;
9108;SDS011;4590;51.462;6.692;2023-02-22T01:39:13;39.47;;;19.80;;
9108;SDS011;4590;51.462;6.692;2023-02-22T01:41:41;38.50;;;19.35;;
9108;SDS011;4590;51.462;6.692;2023-02-22T01:44:17;41.03;;;19.40;;
9108;SDS011;4590;51.462;6.692;2023-02-22T01:46:42;40.00;;;19.30;;
9108;SDS011;4590;51.462;6.692;2023-02-22T01:49:08;36.43;;;18.27;;
9108;SDS011;4590;51.462;6.692;2023-02-22T01:51:45;49.17;;;19.80;;
9108;SDS011;4590;51.462;6.692;2023-02-22T01:54:14;36.83;;;18.17;;
9108;SDS011;4590;51.462;6.692;2023-02-22T01:59:31;41.10;;;19.75;;
9108;SDS011;4590;51.462;6.692;2023-02-22T02:02:00;37.53;;;18.77;;
9108;SDS011;4590;51.462;6.692;2023-02-22T02:04:26;36.25;;;17.85;;
9108;SDS011;4590;51.462;6.692;2023-02-22T02:06:52;36.97;;;18.25;;
9108;SDS011;4590;51.462;6.692;2023-02-22T02:09:24;38.88;;;19.05;;
9108;SDS011;4590;51.462;6.692;2023-02-22T02:11:58;40.10;;;19.05;;
9108;SDS011;4590;51.462;6.692;2023-02-22T02:14:29;38.22;;;18.65;;
9108;SDS011;4590;51.462;6.692;2023-02-22T02:16:58;44.83;;;20.63;;
9108;SDS011;4590;51.462;6.692;2023-02-22T02:25:01;38.47;;;19.10;;
9108;SDS011;4590;51.462;6.692;2023-02-22T02:27:45;36.30;;;17.67;;
9108;SDS011;4590;51.462;6.692;2023-02-22T02:30:22;38.47;;;18.27;;
9108;SDS011;4590;51.462;6.692;2023-02-22T02:33:03;36.10;;;18.83;;
9108;SDS011;4590;51.462;6.692;2023-02-22T02:35:42;35.85;;;18.48;;
9108;SDS011;4590;51.462;6.692;2023-02-22T02:38:21;38.47;;;19.63;;
9108;SDS011;4590;51.462;6.692;2023-02-22T02:41:12;41.10;;;19.55;;
9108;SDS011;4590;51.462;6.692;2023-02-22T02:43:46;41.15;;;19.52;;
9108;SDS011;4590;51.462;6.692;2023-02-22T02:46:19;39.22;;;19.17;;
9108;SDS011;4590;51.462;6.692;2023-02-22T02:48:48;39.33;;;19.05;;
9108;SDS011;4590;51.462;6.692;2023-02-22T02:51:20;36.88;;;19.05;;
9108;SDS011;4590;51.462;6.692;2023-02-22T02:53:48;42.17;;;20.05;;
9108;SDS011;4590;51.462;6.692;2023-02-22T02:56:16;39.53;;;19.65;;
9108;SDS011;4590;51.462;6.692;2023-02-22T02:58:49;44.25;;;20.83;;
9108;SDS011;4590;51.462;6.692;2023-02-22T03:01:19;42.08;;;20.45;;
9108;SDS011;4590;51.462;6.692;2023-02-22T03:12:12;53.33;;;21.05;;
9108;SDS011;4590;51.462;6.692;2023-02-22T03:17:34;98.78;;;19.92;;
9108;SDS011;4590;51.462;6.692;2023-02-22T03:22:57;69.47;;;17.52;;
9108;SDS011;4590;51.462;6.692;2023-02-22T03:25:33;95.38;;;20.05;;
9108;SDS011;4590;51.462;6.692;2023-02-22T03:28:06;122.60;;;21.48;;
9108;SDS011;4590;51.462;6.692;2023-02-22T03:30:36;70.10;;;18.80;;
9108;SDS011;4590;51.462;6.692;2023-02-22T03:33:06;82.90;;;22.25;;
9108;SDS011;4590;51.462;6.692;2023-02-22T03:35:37;66.30;;;19.27;;
9108;SDS011;4590;51.462;6.692;2023-02-22T03:38:10;118.25;;;20.52;;
9108;SDS011;4590;51.462;6.692;2023-02-22T03:40:40;84.35;;;19.55;;
9108;SDS011;4590;51.462;6.692;2023-02-22T03:43:12;83.80;;;20.10;;
9108;SDS011;4590;51.462;6.692;2023-02-22T03:45:42;44.03;;;18.73;;
9108;SDS011;4590;51.462;6.692;2023-02-22T03:48:16;57.55;;;19.48;;
9108;SDS011;4590;51.462;6.692;2023-02-22T03:50:47;39.17;;;16.77;;
9108;SDS011;4590;51.462;6.692;2023-02-22T03:53:13;38.05;;;16.60;;
9108;SDS011;4590;51.462;6.692;2023-02-22T03:55:39;37.33;;;16.63;;
9108;SDS011;4590;51.462;6.692;2023-02-22T03:58:05;40.93;;;17.57;;
9108;SDS011;4590;51.462;6.692;2023-02-22T04:00:35;38.40;;;17.50;;
9108;SDS011;4590;51.462;6.692;2023-02-22T04:03:01;37.93;;;15.57;;
9108;SDS011;4590;51.462;6.692;2023-02-22T04:05:26;35.05;;;15.73;;
9108;SDS011;4590;51.462;6.692;2023-02-22T04:07:52;38.33;;;17.10;;
9108;SDS011;4590;51.462;6.692;2023-02-22T04:10:18;38.05;;;16.55;;
9108;SDS011;4590;51.462;6.692;2023-02-22T04:12:43;45.83;;;19.43;;
9108;SDS011;4590;51.462;6.692;2023-02-22T04:15:16;42.07;;;19.37;;
9108;SDS011;4590;51.462;6.692;2023-02-22T04:17:44;37.95;;;15.57;;
9108;SDS011;4590;51.462;6.692;2023-02-22T04:20:09;42.13;;;16.57;;
9108;SDS011;4590;51.462;6.692;2023-02-22T04:22:37;43.53;;;16.70;;
9108;SDS011;4590;51.462;6.692;2023-02-22T04:25:02;38.40;;;16.70;;
9108;SDS011;4590;51.462;6.692;2023-02-22T04:27:28;48.33;;;19.00;;
9108;SDS011;4590;51.462;6.692;2023-02-22T04:29:53;51.30;;;18.97;;
9108;SDS011;4590;51.462;6.692;2023-02-22T04:32:18;46.80;;;18.63;;
9108;SDS011;4590;51.462;6.692;2023-02-22T04:34:43;47.90;;;16.37;;
9108;SDS011;4590;51.462;6.692;2023-02-22T04:37:09;48.30;;;18.70;;
9108;SDS011;4590;51.462;6.692;2023-02-22T04:39:34;52.83;;;18.20;;
9108;SDS011;4590;51.462;6.692;2023-02-22T04:41:59;46.27;;;18.63;;
9108;SDS011;4590;51.462;6.692;2023-02-22T04:44:25;39.17;;;16.63;;
9108;SDS011;4590;51.462;6.692;2023-02-22T04:46:50;44.67;;;19.20;;
9108;SDS011;4590;51.462;6.692;2023-02-22T04:49:15;43.73;;;20.03;;
9108;SDS011;4590;51.462;6.692;2023-02-22T04:51:40;53.47;;;21.33;;
9108;SDS011;4590;51.462;6.692;2023-02-22T04:54:06;53.03;;;21.90;;
9108;SDS011;4590;51.462;6.692;2023-02-22T04:56:31;53.87;;;22.13;;
9108;SDS011;4590;51.462;6.692;2023-02-22T04:58:57;48.50;;;21.47;;
9108;SDS011;4590;51.462;6.692;2023-02-22T05:01:22;66.63;;;22.13;;
9108;SDS011;4590;51.462;6.692;2023-02-22T05:03:47;56.43;;;20.03;;
9108;SDS011;4590;51.462;6.692;2023-02-22T05:06:12;65.60;;;20.17;;
9108;SDS011;4590;51.462;6.692;2023-02-22T05:08:38;47.03;;;20.20;;
9108;SDS011;4590;51.462;6.692;2023-02-22T05:11:03;35.30;;;15.63;;
9108;SDS011;4590;51.462;6.692;2023-02-22T05:13:29;57.90;;;17.77;;
9108;SDS011;4590;51.462;6.692;2023-02-22T05:15:54;60.75;;;18.88;;
9108;SDS011;4590;51.462;6.692;2023-02-22T05:18:20;53.93;;;18.97;;
9108;SDS011;4590;51.462;6.692;2023-02-22T05:20:45;62.77;;;20.37;;
9108;SDS011;4590;51.462;6.692;2023-02-22T05:23:10;43.80;;;16.33;;
9108;SDS011;4590;51.462;6.692;2023-02-22T05:25:35;51.23;;;21.40;;
9108;SDS011;4590;51.462;6.692;2023-02-22T05:28:07;48.00;;;19.63;;
9108;SDS011;4590;51.462;6.692;2023-02-22T05:30:36;52.95;;;19.65;;
9108;SDS011;4590;51.462;6.692;2023-02-22T05:33:05;48.70;;;18.33;;
9108;SDS011;4590;51.462;6.692;2023-02-22T05:35:31;69.15;;;19.80;;
9108;SDS011;4590;51.462;6.692;2023-02-22T05:37:57;44.50;;;19.20;;
9108;SDS011;4590;51.462;6.692;2023-02-22T05:40:26;49.67;;;18.63;;
9108;SDS011;4590;51.462;6.692;2023-02-22T05:42:52;38.45;;;15.85;;
9108;SDS011;4590;51.462;6.692;2023-02-22T05:45:18;40.83;;;18.05;;
9108;SDS011;4590;51.462;6.692;2023-02-22T05:47:45;37.55;;;16.55;;
9108;SDS011;4590;51.462;6.692;2023-02-22T05:50:11;51.00;;;20.43;;
9108;SDS011;4590;51.462;6.692;2023-02-22T05:52:37;52.08;;;20.45;;
9108;SDS011;4590;51.462;6.692;2023-02-22T05:55:05;47.92;;;18.52;;
9108;SDS011;4590;51.462;6.692;2023-02-22T05:57:31;45.08;;;19.85;;
9108;SDS011;4590;51.462;6.692;2023-02-22T05:59:57;39.37;;;17.40;;
9108;SDS011;4590;51.462;6.692;2023-02-22T06:02:22;41.53;;;18.33;;
9108;SDS011;4590;51.462;6.692;2023-02-22T06:04:48;39.37;;;18.47;;
9108;SDS011;4590;51.462;6.692;2023-02-22T06:07:13;41.10;;;16.63;;
9108;SDS011;4590;51.462;6.692;2023-02-22T06:09:39;57.80;;;19.27;;
9108;SDS011;4590;51.462;6.692;2023-02-22T06:12:05;44.85;;;18.55;;
9108;SDS011;4590;51.462;6.692;2023-02-22T06:14:31;44.58;;;17.98;;
9108;SDS011;4590;51.462;6.692;2023-02-22T06:16:56;55.00;;;19.80;;
9108;SDS011;4590;51.462;6.692;2023-02-22T06:19:22;41.92;;;18.85;;
9108;SDS011;4590;51.462;6.692;2023-02-22T06:21:49;43.47;;;18.08;;
9108;SDS011;4590;51.462;6.692;2023-02-22T06:24:15;48.97;;;19.55;;
9108;SDS011;4590;51.462;6.692;2023-02-22T06:26:40;49.83;;;19.83;;
9108;SDS011;4590;51.462;6.692;2023-02-22T06:29:06;39.77;;;19.17;;
9108;SDS011;4590;51.462;6.692;2023-02-22T06:31:31;43.43;;;19.10;;
9108;SDS011;4590;51.462;6.692;2023-02-22T06:33:56;52.93;;;21.27;;
9108;SDS011;4590;51.462;6.692;2023-02-22T06:36:21;55.63;;;22.00;;
9108;SDS011;4590;51.462;6.692;2023-02-22T06:38:47;55.77;;;21.83;;
9108;SDS011;4590;51.462;6.692;2023-02-22T06:41:12;54.63;;;23.97;;
9108;SDS011;4590;51.462;6.692;2023-02-22T06:43:39;61.67;;;22.52;;
9108;SDS011;4590;51.462;6.692;2023-02-22T06:46:06;57.53;;;24.07;;
9108;SDS011;4590;51.462;6.692;2023-02-22T06:48:35;49.42;;;22.63;;
9108;SDS011;4590;51.462;6.692;2023-02-22T06:51:02;57.83;;;25.10;;
9108;SDS011;4590;51.462;6.692;2023-02-22T06:53:27;57.30;;;24.45;;
9108;SDS011;4590;51.462;6.692;2023-02-22T06:55:53;51.47;;;22.20;;
9108;SDS011;4590;51.462;6.692;2023-02-22T06:58:19;53.55;;;24.58;;
9108;SDS011;4590;51.462;6.692;2023-02-22T07:00:44;49.80;;;22.40;;
9108;SDS011;4590;51.462;6.692;2023-02-22T07:03:09;51.23;;;23.63;;
9108;SDS011;4590;51.462;6.692;2023-02-22T07:05:35;45.97;;;20.50;;
9108;SDS011;4590;51.462;6.692;2023-02-22T07:08:04;38.87;;;19.53;;
9108;SDS011;4590;51.462;6.692;2023-02-22T07:10:31;43.53;;;21.27;;
9108;SDS011;4590;51.462;6.692;2023-02-22T07:12:58;42.88;;;20.92;;
9108;SDS011;4590;51.462;6.692;2023-02-22T07:15:24;40.22;;;20.73;;
9108;SDS011;4590;51.462;6.692;2023-02-22T07:17:51;36.10;;;18.15;;
9108;SDS011;4590;51.462;6.692;2023-02-22T07:20:17;37.50;;;18.67;;
9108;SDS011;4590;51.462;6.692;2023-02-22T07:22:44;35.47;;;19.08;;
9108;SDS011;4590;51.462;6.692;2023-02-22T07:25:10;35.43;;;18.73;;
9108;SDS011;4590;51.462;6.692;2023-02-22T07:27:36;37.40;;;18.47;;
9108;SDS011;4590;51.462;6.692;2023-02-22T07:30:03;38.35;;;18.25;;
9108;SDS011;4590;51.462;6.692;2023-02-22T07:32:29;30.70;;;16.20;;
9108;SDS011;4590;51.462;6.692;2023-02-22T07:34:54;33.23;;;17.03;;
9108;SDS011;4590;51.462;6.692;2023-02-22T07:37:19;34.50;;;17.53;;
9108;SDS011;4590;51.462;6.692;2023-02-22T07:39:45;34.87;;;17.67;;
9108;SDS011;4590;51.462;6.692;2023-02-22T07:42:10;32.07;;;15.77;;
9108;SDS011;4590;51.462;6.692;2023-02-22T07:44:35;29.53;;;17.00;;
9108;SDS011;4590;51.462;6.692;2023-02-22T07:47:01;31.00;;;16.50;;
9108;SDS011;4590;51.462;6.692;2023-02-22T07:49:26;27.53;;;15.63;;
9108;SDS011;4590;51.462;6.692;2023-02-22T07:51:52;31.50;;;16.93;;
9108;SDS011;4590;51.462;6.692;2023-02-22T07:54:17;31.83;;;17.17;;
9108;SDS011;4590;51.462;6.692;2023-02-22T07:56:43;29.33;;;16.17;;
9108;SDS011;4590;51.462;6.692;2023-02-22T07:59:10;31.10;;;15.48;;
9108;SDS011;4590;51.462;6.692;2023-02-22T08:01:35;32.10;;;17.00;;
9108;SDS011;4590;51.462;6.692;2023-02-22T08:04:01;28.00;;;15.80;;
9108;SDS011;4590;51.462;6.692;2023-02-22T08:06:26;27.20;;;16.03;;
9108;SDS011;4590;51.462;6.692;2023-02-22T08:08:52;29.13;;;15.88;;
9108;SDS011;4590;51.462;6.692;2023-02-22T08:11:17;26.97;;;15.80;;
9108;SDS011;4590;51.462;6.692;2023-02-22T08:13:42;21.90;;;13.07;;
9108;SDS011;4590;51.462;6.692;2023-02-22T08:16:08;29.53;;;16.50;;
9108;SDS011;4590;51.462;6.692;2023-02-22T08:18:33;28.07;;;14.77;;
9108;SDS011;4590;51.462;6.692;2023-02-22T08:20:58;25.90;;;14.40;;
9108;SDS011;4590;51.462;6.692;2023-02-22T08:23:24;25.17;;;14.50;;
9108;SDS011;4590;51.462;6.692;2023-02-22T08:25:50;22.77;;;13.00;;
9108;SDS011;4590;51.462;6.692;2023-02-22T08:28:18;26.10;;;13.85;;
9108;SDS011;4590;51.462;6.692;2023-02-22T08:30:46;25.25;;;14.05;;
9108;SDS011;4590;51.462;6.692;2023-02-22T08:33:12;26.80;;;14.57;;
9108;SDS011;4590;51.462;6.692;2023-02-22T08:35:40;24.42;;;13.57;;
9108;SDS011;4590;51.462;6.692;2023-02-22T08:38:07;24.67;;;13.20;;
9108;SDS011;4590;51.462;6.692;2023-02-22T08:40:39;23.25;;;13.30;;
9108;SDS011;4590;51.462;6.692;2023-02-22T08:43:04;26.37;;;14.30;;
9108;SDS011;4590;51.462;6.692;2023-02-22T08:45:30;22.88;;;13.23;;
9108;SDS011;4590;51.462;6.692;2023-02-22T08:47:56;24.50;;;13.37;;
9108;SDS011;4590;51.462;6.692;2023-02-22T08:50:23;22.65;;;13.25;;
9108;SDS011;4590;51.462;6.692;2023-02-22T08:52:54;22.63;;;12.95;;
9108;SDS011;4590;51.462;6.692;2023-02-22T08:55:23;23.65;;;13.02;;
9108;SDS011;4590;51.462;6.692;2023-02-22T08:57:50;26.30;;;14.05;;
9108;SDS011;4590;51.462;6.692;2023-02-22T09:00:16;24.03;;;13.40;;
9108;SDS011;4590;51.462;6.692;2023-02-22T09:02:42;20.35;;;12.27;;
9108;SDS011;4590;51.462;6.692;2023-02-22T09:05:08;19.23;;;11.33;;
9108;SDS011;4590;51.462;6.692;2023-02-22T09:07:33;20.37;;;11.67;;
9108;SDS011;4590;51.462;6.692;2023-02-22T09:09:58;23.40;;;13.43;;
9108;SDS011;4590;51.462;6.692;2023-02-22T09:12:24;21.17;;;11.77;;
9108;SDS011;4590;51.462;6.692;2023-02-22T09:14:49;21.43;;;12.20;;
9108;SDS011;4590;51.462;6.692;2023-02-22T09:17:14;22.73;;;12.53;;
9108;SDS011;4590;51.462;6.692;2023-02-22T09:19:40;25.57;;;12.60;;
9108;SDS011;4590;51.462;6.692;2023-02-22T09:22:05;21.53;;;11.83;;
9108;SDS011;4590;51.462;6.692;2023-02-22T09:24:30;23.27;;;12.60;;
9108;SDS011;4590;51.462;6.692;2023-02-22T09:26:55;19.23;;;10.37;;
9108;SDS011;4590;51.462;6.692;2023-02-22T09:29:23;18.65;;;11.00;;
9108;SDS011;4590;51.462;6.692;2023-02-22T09:31:51;17.25;;;10.50;;
9108;SDS011;4590;51.462;6.692;2023-02-22T09:34:18;18.15;;;10.13;;
9108;SDS011;4590;51.462;6.692;2023-02-22T09:36:45;18.73;;;10.52;;
9108;SDS011;4590;51.462;6.692;2023-02-22T09:39:12;18.88;;;10.55;;
9108;SDS011;4590;51.462;6.692;2023-02-22T09:41:46;19.17;;;10.38;;
9108;SDS011;4590;51.462;6.692;2023-02-22T09:47:04;16.92;;;10.05;;
9108;SDS011;4590;51.462;6.692;2023-02-22T09:49:38;21.10;;;11.52;;
9108;SDS011;4590;51.462;6.692;2023-02-22T09:52:24;16.15;;;9.82;;
9108;SDS011;4590;51.462;6.692;2023-02-22T09:55:03;16.30;;;10.40;;
9108;SDS011;4590;51.462;6.692;2023-02-22T09:57:34;16.20;;;9.95;;
9108;SDS011;4590;51.462;6.692;2023-02-22T10:00:20;19.85;;;9.68;;
9108;SDS011;4590;51.462;6.692;2023-02-22T10:03:06;22.17;;;11.65;;
9108;SDS011;4590;51.462;6.692;2023-02-22T10:05:46;21.92;;;11.73;;
9108;SDS011;4590;51.462;6.692;2023-02-22T10:08:18;21.75;;;11.70;;
9108;SDS011;4590;51.462;6.692;2023-02-22T10:10:45;20.80;;;10.77;;
9108;SDS011;4590;51.462;6.692;2023-02-22T10:16:33;15.23;;;8.30;;
9108;SDS011;4590;51.462;6.692;2023-02-22T10:22:02;17.40;;;8.68;;
9108;SDS011;4590;51.462;6.692;2023-02-22T10:24:52;15.07;;;8.93;;
9108;SDS011;4590;51.462;6.692;2023-02-22T10:29:57;12.93;;;7.70;;
9108;SDS011;4590;51.462;6.692;2023-02-22T10:32:31;16.10;;;8.57;;
9108;SDS011;4590;51.462;6.692;2023-02-22T10:35:12;11.55;;;7.63;;
9108;SDS011;4590;51.462;6.692;2023-02-22T10:37:44;13.48;;;8.82;;
9108;SDS011;4590;51.462;6.692;2023-02-22T10:40:16;13.20;;;8.43;;
9108;SDS011;4590;51.462;6.692;2023-02-22T10:42:50;15.48;;;8.77;;
9108;SDS011;4590;51.462;6.692;2023-02-22T10:45:28;17.20;;;9.32;;
9108;SDS011;4590;51.462;6.692;2023-02-22T10:47:56;15.23;;;9.38;;
9108;SDS011;4590;51.462;6.692;2023-02-22T10:50:28;14.45;;;8.45;;
9108;SDS011;4590;51.462;6.692;2023-02-22T10:52:55;14.90;;;8.25;;
9108;SDS011;4590;51.462;6.692;2023-02-22T10:55:20;16.03;;;8.43;;
9108;SDS011;4590;51.462;6.692;2023-02-22T10:57:46;16.55;;;8.98;;
9108;SDS011;4590;51.462;6.692;2023-02-22T11:00:16;14.07;;;7.80;;
9108;SDS011;4590;51.462;6.692;2023-02-22T11:02:49;15.88;;;9.32;;
9108;SDS011;4590;51.462;6.692;2023-02-22T11:05:50;14.60;;;8.10;;
9108;SDS011;4590;51.462;6.692;2023-02-22T11:08:26;13.77;;;7.40;;
9108;SDS011;4590;51.462;6.692;2023-02-22T11:10:53;13.02;;;8.05;;
9108;SDS011;4590;51.462;6.692;2023-02-22T11:15:52;13.50;;;8.00;;
9108;SDS011;4590;51.462;6.692;2023-02-22T11:18:23;12.68;;;7.82;;
9108;SDS011;4590;51.462;6.692;2023-02-22T11:20:57;12.10;;;8.05;;
9108;SDS011;4590;51.462;6.692;2023-02-22T11:23:28;15.10;;;8.20;;
9108;SDS011;4590;51.462;6.692;2023-02-22T11:26:01;13.30;;;7.13;;
9108;SDS011;4590;51.462;6.692;2023-02-22T11:28:30;11.77;;;6.80;;
9108;SDS011;4590;51.462;6.692;2023-02-22T11:31:10;11.32;;;6.15;;
9108;SDS011;4590;51.462;6.692;2023-02-22T11:33:40;11.05;;;6.32;;
9108;SDS011;4590;51.462;6.692;2023-02-22T11:36:14;11.55;;;7.13;;
9108;SDS011;4590;51.462;6.692;2023-02-22T11:39:02;11.77;;;6.97;;
9108;SDS011;4590;51.462;6.692;2023-02-22T11:41:30;11.30;;;6.80;;
9108;SDS011;4590;51.462;6.692;2023-02-22T11:44:12;12.50;;;7.28;;
9108;SDS011;4590;51.462;6.692;2023-02-22T11:46:39;12.65;;;7.22;;
9108;SDS011;4590;51.462;6.692;2023-02-22T11:49:10;14.15;;;8.02;;
9108;SDS011;4590;51.462;6.692;2023-02-22T11:54:42;16.98;;;8.13;;
9108;SDS011;4590;51.462;6.692;2023-02-22T11:57:27;13.65;;;7.20;;
9108;SDS011;4590;51.462;6.692;2023-02-22T12:00:01;14.75;;;7.63;;
9108;SDS011;4590;51.462;6.692;2023-02-22T12:11:06;14.38;;;8.02;;
9108;SDS011;4590;51.462;6.692;2023-02-22T12:14:00;15.15;;;8.80;;
9108;SDS011;4590;51.462;6.692;2023-02-22T12:21:56;16.08;;;9.52;;
9108;SDS011;4590;51.462;6.692;2023-02-22T12:24:34;13.30;;;8.18;;
9108;SDS011;4590;51.462;6.692;2023-02-22T12:27:14;14.65;;;8.13;;
9108;SDS011;4590;51.462;6.692;2023-02-22T12:29:48;13.23;;;7.68;;
9108;SDS011;4590;51.462;6.692;2023-02-22T12:32:24;23.27;;;8.07;;
9108;SDS011;4590;51.462;6.692;2023-02-22T12:35:15;11.65;;;6.68;;
9108;SDS011;4590;51.462;6.692;2023-02-22T12:37:51;13.35;;;7.32;;
9108;SDS011;4590;51.462;6.692;2023-02-22T12:40:44;22.73;;;9.73;;
9108;SDS011;4590;51.462;6.692;2023-02-22T12:43:33;13.38;;;6.85;;
9108;SDS011;4590;51.462;6.692;2023-02-22T12:46:08;10.02;;;6.22;;
9108;SDS011;4590;51.462;6.692;2023-02-22T12:48:42;10.05;;;6.28;;
9108;SDS011;4590;51.462;6.692;2023-02-22T12:51:18;10.32;;;6.55;;
9108;SDS011;4590;51.462;6.692;2023-02-22T12:59:40;12.02;;;5.70;;
9108;SDS011;4590;51.462;6.692;2023-02-22T13:02:21;11.65;;;6.35;;
9108;SDS011;4590;51.462;6.692;2023-02-22T13:04:59;12.43;;;6.85;;
9108;SDS011;4590;51.462;6.692;2023-02-22T13:09:59;10.98;;;6.78;;
9108;SDS011;4590;51.462;6.692;2023-02-22T13:12:50;13.32;;;7.30;;
9108;SDS011;4590;51.462;6.692;2023-02-22T13:15:36;12.10;;;6.82;;
9108;SDS011;4590;51.462;6.692;2023-02-22T13:18:15;11.88;;;7.50;;
9108;SDS011;4590;51.462;6.692;2023-02-22T13:20:51;10.90;;;7.30;;
9108;SDS011;4590;51.462;6.692;2023-02-22T13:23:29;11.82;;;7.50;;
9108;SDS011;4590;51.462;6.692;2023-02-22T13:26:05;12.40;;;7.80;;
9108;SDS011;4590;51.462;6.692;2023-02-22T13:28:45;13.02;;;7.53;;
9108;SDS011;4590;51.462;6.692;2023-02-22T13:34:00;12.93;;;6.85;;
9108;SDS011;4590;51.462;6.692;2023-02-22T13:42:39;13.43;;;8.13;;
9108;SDS011;4590;51.462;6.692;2023-02-22T13:51:03;12.88;;;8.18;;
9108;SDS011;4590;51.462;6.692;2023-02-22T13:53:53;13.10;;;8.20;;
9108;SDS011;4590;51.462;6.692;2023-02-22T13:56:23;15.20;;;7.75;;
9108;SDS011;4590;51.462;6.692;2023-02-22T13:58:50;14.00;;;7.82;;
9108;SDS011;4590;51.462;6.692;2023-02-22T14:04:20;12.48;;;7.38;;
9108;SDS011;4590;51.462;6.692;2023-02-22T14:06:52;12.68;;;7.00;;
9108;SDS011;4590;51.462;6.692;2023-02-22T14:12:27;10.02;;;5.90;;
9108;SDS011;4590;51.462;6.692;2023-02-22T14:15:07;10.57;;;6.15;;
9108;SDS011;4590;51.462;6.692;2023-02-22T14:17:38;8.90;;;5.60;;
9108;SDS011;4590;51.462;6.692;2023-02-22T14:22:43;8.98;;;5.78;;
9108;SDS011;4590;51.462;6.692;2023-02-22T14:27:56;11.43;;;6.32;;
9108;SDS011;4590;51.462;6.692;2023-02-22T14:30:23;11.68;;;7.03;;
9108;SDS011;4590;51.462;6.692;2023-02-22T14:32:50;7.70;;;5.35;;
9108;SDS011;4590;51.462;6.692;2023-02-22T14:35:16;9.80;;;6.20;;
9108;SDS011;4590;51.462;6.692;2023-02-22T14:37:47;10.13;;;6.10;;
9108;SDS011;4590;51.462;6.692;2023-02-22T14:40:20;11.45;;;6.03;;
9108;SDS011;4590;51.462;6.692;2023-02-22T14:42:57;9.70;;;5.55;;
9108;SDS011;4590;51.462;6.692;2023-02-22T14:45:28;10.18;;;6.28;;
9108;SDS011;4590;51.462;6.692;2023-02-22T14:48:40;12.02;;;6.50;;
9108;SDS011;4590;51.462;6.692;2023-02-22T14:50:52;10.02;;;6.47;;
9108;SDS011;4590;51.462;6.692;2023-02-22T14:53:23;12.95;;;6.43;;
9108;SDS011;4590;51.462;6.692;2023-02-22T14:55:59;11.55;;;6.72;;
9108;SDS011;4590;51.462;6.692;2023-02-22T14:58:33;11.32;;;6.28;;
9108;SDS011;4590;51.462;6.692;2023-02-22T15:03:58;11.20;;;6.43;;
9108;SDS011;4590;51.462;6.692;2023-02-22T15:06:40;12.00;;;6.00;;
9108;SDS011;4590;51.462;6.692;2023-02-22T15:09:13;10.20;;;6.90;;
9108;SDS011;4590;51.462;6.692;2023-02-22T15:11:47;10.80;;;5.78;;
9108;SDS011;4590;51.462;6.692;2023-02-22T15:14:19;9.55;;;6.20;;
9108;SDS011;4590;51.462;6.692;2023-02-22T15:16:48;11.18;;;6.05;;
9108;SDS011;4590;51.462;6.692;2023-02-22T15:19:16;9.00;;;6.00;;
9108;SDS011;4590;51.462;6.692;2023-02-22T15:21:49;12.65;;;5.93;;
9108;SDS011;4590;51.462;6.692;2023-02-22T15:24:19;8.18;;;5.60;;
9108;SDS011;4590;51.462;6.692;2023-02-22T15:26:48;12.65;;;7.53;;
9108;SDS011;4590;51.462;6.692;2023-02-22T15:29:15;16.75;;;6.15;;
9108;SDS011;4590;51.462;6.692;2023-02-22T15:31:43;9.40;;;6.15;;
9108;SDS011;4590;51.462;6.692;2023-02-22T15:36:39;9.65;;;5.88;;
9108;SDS011;4590;51.462;6.692;2023-02-22T15:39:05;8.90;;;6.15;;
9108;SDS011;4590;51.462;6.692;2023-02-22T15:41:59;9.35;;;6.28;;
9108;SDS011;4590;51.462;6.692;2023-02-22T15:44:43;10.00;;;6.30;;
9108;SDS011;4590;51.462;6.692;2023-02-22T15:47:17;11.18;;;6.72;;
9108;SDS011;4590;51.462;6.692;2023-02-22T15:49:44;10.55;;;6.68;;
9108;SDS011;4590;51.462;6.692;2023-02-22T15:52:17;9.88;;;6.50;;
9108;SDS011;4590;51.462;6.692;2023-02-22T15:54:46;10.43;;;7.00;;
9108;SDS011;4590;51.462;6.692;2023-02-22T15:57:14;10.35;;;6.85;;
9108;SDS011;4590;51.462;6.692;2023-02-22T15:59:45;9.43;;;6.57;;
9108;SDS011;4590;51.462;6.692;2023-02-22T16:02:59;9.32;;;6.68;;
9108;SDS011;4590;51.462;6.692;2023-02-22T16:05:07;9.80;;;6.70;;
9108;SDS011;4590;51.462;6.692;2023-02-22T16:07:36;11.57;;;7.38;;
9108;SDS011;4590;51.462;6.692;2023-02-22T16:10:04;9.98;;;6.60;;
9108;SDS011;4590;51.462;6.692;2023-02-22T16:12:33;11.77;;;7.40;;
9108;SDS011;4590;51.462;6.692;2023-02-22T16:14:59;10.73;;;7.63;;
9108;SDS011;4590;51.462;6.692;2023-02-22T16:17:36;10.05;;;6.72;;
9108;SDS011;4590;51.462;6.692;2023-02-22T16:22:36;10.05;;;7.13;;
9108;SDS011;4590;51.462;6.692;2023-02-22T16:32:46;10.52;;;7.20;;
9108;SDS011;4590;51.462;6.692;2023-02-22T16:35:12;11.50;;;7.78;;
9108;SDS011;4590;51.462;6.692;2023-02-22T16:37:45;13.27;;;7.95;;
9108;SDS011;4590;51.462;6.692;2023-02-22T16:40:58;13.45;;;8.35;;
9108;SDS011;4590;51.462;6.692;2023-02-22T16:43:10;10.80;;;8.05;;
9108;SDS011;4590;51.462;6.692;2023-02-22T16:45:38;13.77;;;8.48;;
9108;SDS011;4590;51.462;6.692;2023-02-22T16:48:11;11.52;;;7.60;;
9108;SDS011;4590;51.462;6.692;2023-02-22T16:50:40;12.18;;;8.40;;
9108;SDS011;4590;51.462;6.692;2023-02-22T16:53:06;12.20;;;7.87;;